createdAt,value
2023-03-21T00:00:32.065Z,10.10
2023-03-21T00:02:58.983Z,10.10
2023-03-21T00:05:26.042Z,10.10
2023-03-21T00:07:53.087Z,10.20
2023-03-21T00:10:33.140Z,10.20
2023-03-21T00:13:06.394Z,10.10
2023-03-21T00:15:41.308Z,10.20
2023-03-21T00:18:13.103Z,10.20
2023-03-21T00:20:39.963Z,10.20
2023-03-21T00:23:06.808Z,10.20
2023-03-21T00:25:33.783Z,10.30
2023-03-21T00:28:08.398Z,10.40
2023-03-21T00:30:35.917Z,10.40
2023-03-21T00:33:11.958Z,10.40
2023-03-21T00:35:58.380Z,10.40
2023-03-21T00:38:31.622Z,10.50
2023-03-21T00:41:04.753Z,10.50
2023-03-21T00:43:32.909Z,10.50
2023-03-21T00:46:00.298Z,10.50
2023-03-21T00:48:28.141Z,10.50
2023-03-21T00:50:57.286Z,10.50
2023-03-21T00:53:24.322Z,10.50
2023-03-21T00:55:51.260Z,10.40
2023-03-21T00:58:18.565Z,10.20
2023-03-21T01:00:47.150Z,10.00
2023-03-21T01:03:24.608Z,9.90
2023-03-21T01:06:05.974Z,9.80
2023-03-21T01:08:52.373Z,9.70
2023-03-21T01:11:22.940Z,9.60
2023-03-21T01:13:56.021Z,9.40
2023-03-21T01:16:29.121Z,9.40
2023-03-21T01:18:57.063Z,9.40
2023-03-21T01:21:24.381Z,9.40
2023-03-21T01:23:51.438Z,9.40
2023-03-21T01:26:18.400Z,9.40
2023-03-21T01:28:45.908Z,9.50
2023-03-21T01:31:18.049Z,9.50
2023-03-21T01:33:45.366Z,9.50
2023-03-21T01:36:22.660Z,9.50
2023-03-21T01:38:51.327Z,9.40
2023-03-21T01:41:50.169Z,9.40
2023-03-21T01:44:18.640Z,9.30
2023-03-21T01:47:09.679Z,9.20
2023-03-21T01:49:46.296Z,9.20
2023-03-21T01:52:29.706Z,9.20
2023-03-21T01:55:04.662Z,9.30
2023-03-21T01:57:47.277Z,9.30
2023-03-21T02:00:26.784Z,9.30
2023-03-21T02:03:11.340Z,9.40
2023-03-21T02:05:42.568Z,9.50
2023-03-21T02:08:09.453Z,9.50
2023-03-21T02:10:37.024Z,9.60
2023-03-21T02:13:09.761Z,9.60
2023-03-21T02:15:41.638Z,9.60
2023-03-21T02:18:24.922Z,9.50
2023-03-21T02:21:28.799Z,9.50
2023-03-21T02:24:33.180Z,9.50
2023-03-21T02:27:24.228Z,9.40
2023-03-21T02:30:17.353Z,9.40
2023-03-21T02:33:12.207Z,9.40
2023-03-21T02:36:18.471Z,9.50
2023-03-21T02:39:14.791Z,9.60
2023-03-21T02:41:50.777Z,9.70
2023-03-21T02:44:29.627Z,9.70
2023-03-21T02:47:06.311Z,9.80
2023-03-21T02:49:42.027Z,9.80
2023-03-21T02:52:20.765Z,9.90
2023-03-21T02:54:53.309Z,9.90
2023-03-21T02:57:22.817Z,10.00
2023-03-21T02:59:56.833Z,10.00
2023-03-21T03:02:28.661Z,10.00
2023-03-21T03:04:55.749Z,10.10
2023-03-21T03:07:57.076Z,10.10
2023-03-21T03:10:38.190Z,10.10
2023-03-21T03:13:05.171Z,10.10
2023-03-21T03:15:38.813Z,10.20
2023-03-21T03:18:31.243Z,10.20
2023-03-21T03:20:58.069Z,10.30
2023-03-21T03:23:51.628Z,10.30
2023-03-21T03:26:27.303Z,10.30
2023-03-21T03:28:59.309Z,10.30
2023-03-21T03:31:33.586Z,10.30
2023-03-21T03:34:07.281Z,10.30
2023-03-21T03:36:39.937Z,10.30
2023-03-21T03:39:12.167Z,10.30
2023-03-21T03:44:39.466Z,10.40
2023-03-21T03:47:31.697Z,10.30
2023-03-21T03:50:12.313Z,10.30
2023-03-21T03:52:57.001Z,10.40
2023-03-21T03:55:27.313Z,10.30
2023-03-21T03:57:55.700Z,10.40
2023-03-21T04:00:22.639Z,10.40
2023-03-21T04:02:49.631Z,10.40
2023-03-21T04:05:21.374Z,10.40
2023-03-21T04:07:51.107Z,10.40
2023-03-21T04:10:18.834Z,10.40
2023-03-21T04:12:46.046Z,10.40
2023-03-21T04:15:13.045Z,10.30
2023-03-21T04:17:40.293Z,10.30
2023-03-21T04:20:18.520Z,10.30
2023-03-21T04:22:51.361Z,10.40
2023-03-21T04:25:30.767Z,10.40
2023-03-21T04:27:59.902Z,10.40
2023-03-21T04:30:26.912Z,10.40
2023-03-21T04:33:01.189Z,10.40
2023-03-21T04:35:28.895Z,10.40
2023-03-21T04:37:56.752Z,10.40
2023-03-21T04:40:25.314Z,10.40
2023-03-21T04:42:52.270Z,10.40
2023-03-21T04:45:19.154Z,10.30
2023-03-21T04:47:46.223Z,10.20
2023-03-21T04:50:13.816Z,10.20
2023-03-21T04:52:40.757Z,10.10
2023-03-21T04:55:10.417Z,10.00
2023-03-21T04:57:38.443Z,10.00
2023-03-21T05:00:09.870Z,9.90
2023-03-21T05:02:38.137Z,9.90
2023-03-21T05:05:05.664Z,9.90
2023-03-21T05:07:32.920Z,10.00
2023-03-21T05:10:01.916Z,10.00
2023-03-21T05:12:29.380Z,10.00
2023-03-21T05:14:56.340Z,10.00
2023-03-21T05:17:24.972Z,10.00
2023-03-21T05:19:53.003Z,10.00
2023-03-21T05:22:20.706Z,10.00
2023-03-21T05:24:50.556Z,10.10
2023-03-21T05:27:34.222Z,10.10
2023-03-21T05:30:07.316Z,10.20
2023-03-21T05:32:34.634Z,10.20
2023-03-21T05:35:01.769Z,10.10
2023-03-21T05:37:29.167Z,10.20
2023-03-21T05:39:56.208Z,10.30
2023-03-21T05:42:23.605Z,10.60
2023-03-21T05:44:50.604Z,10.90
2023-03-21T05:47:18.140Z,10.90
2023-03-21T05:49:45.989Z,11.10
2023-03-21T05:52:13.281Z,11.10
2023-03-21T05:54:40.254Z,11.20
2023-03-21T05:57:07.232Z,11.60
2023-03-21T05:59:35.428Z,12.20
2023-03-21T06:02:02.403Z,12.80
2023-03-21T06:04:29.450Z,13.40
2023-03-21T06:06:56.502Z,13.70
2023-03-21T06:09:23.767Z,13.60
2023-03-21T06:11:53.530Z,13.60
2023-03-21T06:14:21.530Z,13.50
2023-03-21T06:16:48.435Z,13.50
2023-03-21T06:19:15.803Z,13.50
2023-03-21T06:21:43.068Z,13.60
2023-03-21T06:24:10.390Z,13.80
2023-03-21T06:26:37.813Z,14.10
2023-03-21T06:29:05.652Z,14.20
2023-03-21T06:31:32.560Z,14.20
2023-03-21T06:33:59.476Z,14.50
2023-03-21T06:36:26.408Z,15.00
2023-03-21T06:38:53.634Z,15.40
2023-03-21T06:41:20.828Z,15.80
2023-03-21T06:43:48.563Z,16.10
2023-03-21T06:46:15.659Z,16.60
2023-03-21T06:48:44.655Z,16.90
2023-03-21T06:51:15.505Z,17.20
2023-03-21T06:53:42.558Z,17.60
2023-03-21T06:56:10.953Z,17.90
2023-03-21T06:58:38.445Z,18.20
2023-03-21T07:01:07.095Z,18.50
2023-03-21T07:03:34.495Z,18.80
2023-03-21T07:06:11.699Z,19.00
2023-03-21T07:08:39.831Z,19.40
2023-03-21T07:11:06.956Z,19.50
2023-03-21T07:13:34.191Z,19.70
2023-03-21T07:16:01.135Z,19.90
2023-03-21T07:18:28.332Z,20.10
2023-03-21T07:20:55.690Z,20.40
2023-03-21T07:23:25.877Z,20.80
2023-03-21T07:25:54.500Z,20.90
2023-03-21T07:28:23.273Z,21.00
2023-03-21T07:30:58.101Z,21.20
2023-03-21T07:33:26.057Z,21.50
2023-03-21T07:35:54.377Z,21.70
2023-03-21T07:38:21.850Z,21.40
2023-03-21T07:40:49.103Z,21.30
2023-03-21T07:43:16.779Z,21.20
2023-03-21T07:45:44.743Z,21.30
2023-03-21T07:48:17.546Z,21.50
2023-03-21T07:50:44.532Z,21.80
2023-03-21T07:53:11.497Z,22.00
2023-03-21T07:55:38.576Z,22.30
2023-03-21T07:58:05.859Z,22.50
2023-03-21T08:00:33.270Z,22.50
2023-03-21T08:03:01.145Z,22.60
2023-03-21T08:05:31.320Z,22.80
2023-03-21T08:07:58.254Z,23.10
2023-03-21T08:10:25.553Z,23.10
2023-03-21T08:12:52.532Z,23.30
2023-03-21T08:15:19.608Z,23.60
2023-03-21T08:17:46.570Z,23.70
2023-03-21T08:20:22.119Z,23.70
2023-03-21T08:22:49.546Z,23.60
2023-03-21T08:25:18.331Z,23.50
2023-03-21T08:27:46.822Z,23.20
2023-03-21T08:30:16.606Z,23.20
2023-03-21T08:32:44.412Z,23.40
2023-03-21T08:35:13.743Z,23.60
2023-03-21T08:37:41.974Z,23.80
2023-03-21T08:40:13.439Z,24.10
2023-03-21T08:42:41.573Z,24.40
2023-03-21T08:45:09.990Z,24.60
2023-03-21T08:47:37.128Z,24.70
2023-03-21T08:50:06.926Z,24.80
2023-03-21T08:52:34.168Z,25.00
2023-03-21T08:55:02.351Z,25.30
2023-03-21T08:57:30.135Z,25.40
2023-03-21T08:59:57.255Z,25.50
2023-03-21T09:02:24.226Z,25.60
2023-03-21T09:04:54.985Z,25.80
2023-03-21T09:07:22.346Z,25.90
2023-03-21T09:10:08.118Z,25.90
2023-03-21T09:12:41.155Z,26.00
2023-03-21T09:15:09.932Z,26.00
2023-03-21T09:17:36.838Z,26.00
2023-03-21T09:20:11.307Z,25.40
2023-03-21T09:22:41.287Z,25.30
2023-03-21T09:25:11.623Z,25.40
2023-03-21T09:27:38.760Z,25.60
2023-03-21T09:30:07.537Z,25.70
2023-03-21T09:32:35.296Z,25.70
2023-03-21T09:35:02.269Z,25.80
2023-03-21T09:37:29.446Z,25.90
2023-03-21T09:39:58.330Z,25.90
2023-03-21T09:42:31.732Z,25.10
2023-03-21T09:45:13.797Z,23.80
2023-03-21T09:47:53.670Z,23.00
2023-03-21T09:50:31.707Z,22.70
2023-03-21T09:53:07.411Z,22.30
2023-03-21T09:55:38.663Z,21.90
2023-03-21T09:58:27.220Z,21.60
2023-03-21T10:01:07.596Z,21.40
2023-03-21T10:03:35.473Z,21.10
2023-03-21T10:06:11.640Z,20.80
2023-03-21T10:08:41.931Z,20.60
2023-03-21T10:11:24.922Z,20.40
2023-03-21T10:13:58.396Z,20.30
2023-03-21T10:16:45.718Z,20.30
2023-03-21T10:19:15.892Z,20.20
2023-03-21T10:22:03.620Z,20.00
2023-03-21T10:24:34.706Z,19.80
2023-03-21T10:27:03.972Z,19.60
2023-03-21T10:29:44.939Z,19.80
2023-03-21T10:32:17.560Z,20.20
2023-03-21T10:37:28.894Z,20.90
2023-03-21T10:39:56.336Z,21.20
2023-03-21T10:42:27.228Z,21.40
2023-03-21T10:44:59.218Z,21.50
2023-03-21T10:47:33.990Z,21.70
2023-03-21T10:50:09.216Z,21.70
2023-03-21T10:52:41.787Z,21.80
2023-03-21T10:55:25.969Z,21.70
2023-03-21T10:58:03.666Z,21.70
2023-03-21T11:00:37.034Z,21.70
2023-03-21T11:03:05.528Z,21.70
2023-03-21T11:05:41.912Z,21.60
2023-03-21T11:08:27.759Z,21.50
2023-03-21T11:11:07.441Z,21.30
2023-03-21T11:13:44.747Z,21.10
2023-03-21T11:16:18.744Z,21.10
2023-03-21T11:18:51.358Z,21.20
2023-03-21T11:21:18.836Z,21.10
2023-03-21T11:23:48.818Z,21.00
2023-03-21T11:26:37.608Z,20.80
2023-03-21T11:29:27.224Z,20.40
2023-03-21T11:31:57.310Z,19.90
2023-03-21T11:34:28.199Z,19.70
2023-03-21T11:37:00.121Z,19.50
2023-03-21T11:39:39.840Z,19.40
2023-03-21T11:42:33.443Z,19.50
2023-03-21T11:45:23.040Z,19.40
2023-03-21T11:47:51.852Z,19.30
2023-03-21T11:50:21.827Z,19.40
2023-03-21T11:53:14.318Z,19.40
2023-03-21T11:55:56.987Z,19.30
2023-03-21T11:58:30.710Z,19.30
2023-03-21T12:01:21.987Z,19.40
2023-03-21T12:04:22.786Z,19.40
2023-03-21T12:07:16.899Z,19.30
2023-03-21T12:09:55.982Z,19.60
2023-03-21T12:12:41.257Z,19.70
2023-03-21T12:15:22.932Z,19.40
2023-03-21T12:18:08.650Z,19.40
2023-03-21T12:20:57.156Z,19.60
2023-03-21T12:23:48.236Z,19.90
2023-03-21T12:26:53.748Z,20.10
2023-03-21T12:29:32.986Z,20.00
2023-03-21T12:32:10.745Z,19.90
2023-03-21T12:34:56.606Z,19.70
2023-03-21T12:38:05.636Z,19.50
2023-03-21T12:41:11.682Z,19.40
2023-03-21T12:43:55.238Z,19.60
2023-03-21T12:46:48.430Z,19.80
2023-03-21T12:49:31.164Z,19.90
2023-03-21T12:52:06.312Z,20.10
2023-03-21T12:54:47.518Z,20.30
2023-03-21T12:57:19.726Z,20.40
2023-03-21T12:59:56.859Z,20.40
2023-03-21T13:02:34.299Z,20.60
2023-03-21T13:05:31.968Z,20.60
2023-03-21T13:08:08.125Z,20.60
2023-03-21T13:10:35.063Z,20.40
2023-03-21T13:13:16.944Z,20.30
2023-03-21T13:16:00.459Z,20.20
2023-03-21T13:18:36.633Z,20.00
2023-03-21T13:21:29.408Z,19.60
2023-03-21T13:24:18.995Z,19.50
2023-03-21T13:26:52.658Z,19.40
2023-03-21T13:29:34.843Z,19.10
2023-03-21T13:32:21.949Z,19.00
2023-03-21T13:35:05.112Z,18.80
2023-03-21T13:37:35.284Z,18.70
2023-03-21T13:40:12.948Z,18.50
2023-03-21T13:42:46.066Z,18.50
2023-03-21T13:45:26.935Z,18.50
2023-03-21T13:47:59.037Z,18.60
2023-03-21T13:50:48.520Z,18.70
2023-03-21T13:53:15.488Z,19.00
2023-03-21T13:55:45.841Z,19.10
2023-03-21T13:58:45.764Z,19.20
2023-03-21T14:01:31.489Z,19.30
2023-03-21T14:04:13.642Z,19.50
2023-03-21T14:06:57.201Z,19.50
2023-03-21T14:10:00.496Z,19.40
2023-03-21T14:12:31.283Z,19.40
2023-03-21T14:15:16.347Z,19.50
2023-03-21T14:17:53.262Z,19.40
2023-03-21T14:20:24.028Z,19.30
2023-03-21T14:22:51.297Z,19.30
2023-03-21T14:25:21.351Z,19.30
2023-03-21T14:27:55.632Z,19.20
2023-03-21T14:30:27.051Z,19.20
2023-03-21T14:33:01.609Z,19.20
2023-03-21T14:35:33.141Z,19.20
2023-03-21T14:38:07.513Z,19.30
2023-03-21T14:40:34.886Z,19.20
2023-03-21T14:43:06.541Z,19.10
2023-03-21T14:45:37.125Z,19.20
2023-03-21T14:48:31.537Z,19.10
2023-03-21T14:51:04.132Z,19.10
2023-03-21T14:53:33.495Z,19.10
2023-03-21T14:56:19.015Z,19.00
2023-03-21T14:58:47.960Z,19.00
2023-03-21T15:01:22.172Z,18.90
2023-03-21T15:03:52.147Z,18.90
2023-03-21T15:06:19.624Z,18.90
2023-03-21T15:09:01.352Z,18.90
2023-03-21T15:11:37.642Z,18.90
2023-03-21T15:14:08.820Z,18.90
2023-03-21T15:16:36.980Z,18.90
2023-03-21T15:19:05.369Z,18.90
2023-03-21T15:21:40.498Z,18.90
2023-03-21T15:24:17.063Z,18.90
2023-03-21T15:26:49.610Z,18.90
2023-03-21T15:29:18.093Z,18.90
2023-03-21T15:31:48.225Z,18.90
2023-03-21T15:34:24.507Z,18.90
2023-03-21T15:37:01.880Z,18.80
2023-03-21T15:39:29.643Z,18.70
2023-03-21T15:42:05.702Z,18.60
2023-03-21T15:44:35.177Z,18.50
2023-03-21T15:47:02.564Z,18.40
2023-03-21T15:49:34.150Z,18.30
2023-03-21T15:52:11.328Z,18.30
2023-03-21T15:54:55.789Z,18.20
2023-03-21T15:57:32.991Z,18.10
2023-03-21T16:00:25.705Z,18.00
2023-03-21T16:02:58.246Z,17.90
2023-03-21T16:05:31.618Z,17.80
2023-03-21T16:08:19.900Z,17.80
2023-03-21T16:10:48.911Z,17.70
2023-03-21T16:13:16.655Z,17.60
2023-03-21T16:15:44.428Z,17.40
2023-03-21T16:18:16.569Z,17.40
2023-03-21T16:20:46.599Z,17.30
2023-03-21T16:23:15.758Z,17.20
2023-03-21T16:25:44.308Z,17.20
2023-03-21T16:28:16.060Z,17.10
2023-03-21T16:30:43.431Z,17.00
2023-03-21T16:33:14.054Z,17.00
2023-03-21T16:35:41.375Z,16.90
2023-03-21T16:38:10.421Z,16.80
2023-03-21T16:40:39.816Z,16.70
2023-03-21T16:43:07.466Z,16.60
2023-03-21T16:45:34.597Z,16.60
2023-03-21T16:48:01.854Z,16.50
2023-03-21T16:50:33.330Z,16.40
2023-03-21T16:53:01.104Z,16.30
2023-03-21T16:55:28.958Z,16.20
2023-03-21T16:57:57.453Z,16.20
2023-03-21T17:00:27.387Z,16.10
2023-03-21T17:02:56.705Z,16.00
2023-03-21T17:05:27.641Z,15.90
2023-03-21T17:07:55.671Z,15.90
2023-03-21T17:10:25.105Z,15.80
2023-03-21T17:12:52.459Z,15.70
2023-03-21T17:15:19.491Z,15.70
2023-03-21T17:17:47.180Z,15.60
2023-03-21T17:20:22.083Z,15.60
2023-03-21T17:22:49.499Z,15.50
2023-03-21T17:25:18.220Z,15.40
2023-03-21T17:27:45.908Z,15.40
2023-03-21T17:30:31.803Z,15.30
2023-03-21T17:32:59.322Z,15.30
2023-03-21T17:35:26.979Z,15.20
2023-03-21T17:37:54.349Z,15.20
2023-03-21T17:40:28.755Z,15.10
2023-03-21T17:42:57.211Z,15.10
2023-03-21T17:45:24.751Z,15.10
2023-03-21T17:47:52.152Z,15.00
2023-03-21T17:50:25.721Z,14.90
2023-03-21T17:52:53.014Z,14.90
2023-03-21T17:55:21.548Z,14.90
2023-03-21T17:57:49.617Z,14.80
2023-03-21T18:00:23.519Z,14.80
2023-03-21T18:02:51.908Z,14.80
2023-03-21T18:05:22.193Z,14.70
2023-03-21T18:08:09.856Z,14.70
2023-03-21T18:10:38.275Z,14.60
2023-03-21T18:13:06.210Z,14.50
2023-03-21T18:15:33.327Z,14.50
2023-03-21T18:18:00.630Z,14.40
2023-03-21T18:20:50.396Z,14.40
2023-03-21T18:23:19.319Z,14.40
2023-03-21T18:25:47.243Z,14.30
2023-03-21T18:28:19.210Z,14.20
2023-03-21T18:31:07.389Z,14.20
2023-03-21T18:33:38.376Z,14.10
2023-03-21T18:36:07.843Z,14.10
2023-03-21T18:38:37.011Z,14.00
2023-03-21T18:41:07.162Z,14.00
2023-03-21T18:44:05.370Z,14.00
2023-03-21T18:46:25.493Z,13.90
2023-03-21T18:48:52.846Z,13.90
2023-03-21T18:51:20.461Z,13.90
2023-03-21T18:53:47.800Z,13.80
2023-03-21T18:57:13.117Z,13.80
2023-03-21T18:59:09.515Z,13.80
2023-03-21T19:01:37.575Z,13.70
2023-03-21T19:04:20.704Z,13.60
2023-03-21T19:06:51.706Z,13.50
2023-03-21T19:09:29.034Z,13.50
2023-03-21T19:11:59.897Z,13.40
2023-03-21T19:14:28.404Z,13.40
2023-03-21T19:17:55.846Z,13.40
2023-03-21T19:19:47.206Z,13.30
2023-03-21T19:22:15.241Z,13.20
2023-03-21T19:25:05.697Z,13.20
2023-03-21T19:27:36.518Z,13.10
2023-03-21T19:30:15.425Z,13.10
2023-03-21T19:32:45.483Z,13.00
2023-03-21T19:35:14.417Z,12.90
2023-03-21T19:37:42.208Z,12.80
2023-03-21T19:40:10.445Z,12.70
2023-03-21T19:42:38.461Z,12.50
2023-03-21T19:45:07.131Z,12.50
2023-03-21T19:47:35.939Z,12.40
2023-03-21T19:50:45.481Z,12.40
2023-03-21T19:52:52.379Z,12.30
2023-03-21T19:55:21.878Z,12.30
2023-03-21T19:57:50.061Z,12.20
2023-03-21T20:00:19.544Z,12.20
2023-03-21T20:02:48.982Z,12.10
2023-03-21T20:05:29.251Z,11.90
2023-03-21T20:08:01.796Z,11.80
2023-03-21T20:10:30.429Z,11.70
2023-03-21T20:12:58.365Z,11.70
2023-03-21T20:15:28.975Z,11.60
2023-03-21T20:17:58.009Z,11.60
2023-03-21T20:20:26.964Z,11.50
2023-03-21T20:23:11.559Z,11.50
2023-03-21T20:25:43.727Z,11.50
2023-03-21T20:28:17.218Z,11.50
2023-03-21T20:30:58.928Z,11.50
2023-03-21T20:33:29.669Z,11.50
2023-03-21T20:38:55.609Z,11.50
2023-03-21T20:41:23.487Z,11.50
2023-03-21T20:44:34.702Z,11.40
2023-03-21T20:46:39.970Z,11.30
2023-03-21T20:49:07.491Z,11.20
2023-03-21T20:54:22.570Z,11.10
2023-03-21T20:56:51.725Z,11.00
2023-03-21T20:59:26.634Z,10.90
2023-03-21T21:01:57.412Z,10.90
2023-03-21T21:04:52.448Z,10.90
2023-03-21T21:07:22.476Z,10.90
2023-03-21T21:09:50.543Z,10.90
2023-03-21T21:12:19.735Z,11.00
2023-03-21T21:14:48.445Z,10.90
2023-03-21T21:18:01.598Z,10.90
2023-03-21T21:20:24.524Z,10.90
2023-03-21T21:22:59.404Z,10.80
2023-03-21T21:25:29.339Z,10.60
2023-03-21T21:27:56.363Z,10.40
2023-03-21T21:30:23.579Z,10.20
2023-03-21T21:32:50.509Z,10.20
2023-03-21T21:35:19.594Z,10.20
2023-03-21T21:37:47.134Z,10.20
2023-03-21T21:40:16.780Z,10.30
2023-03-21T21:42:44.763Z,10.40
2023-03-21T21:45:13.316Z,10.40
2023-03-21T21:47:40.844Z,10.50
2023-03-21T21:50:08.452Z,10.50
2023-03-21T21:52:35.790Z,10.60
2023-03-21T21:55:04.210Z,10.60
2023-03-21T21:57:34.396Z,10.60
2023-03-21T22:00:06.260Z,10.60
2023-03-21T22:02:33.383Z,10.60
2023-03-21T22:05:00.697Z,10.50
2023-03-21T22:07:28.374Z,10.30
2023-03-21T22:09:55.300Z,10.30
2023-03-21T22:12:22.214Z,10.20
2023-03-21T22:14:49.122Z,10.20
2023-03-21T22:17:16.431Z,10.20
2023-03-21T22:19:46.267Z,10.30
2023-03-21T22:22:19.707Z,10.30
2023-03-21T22:24:46.705Z,10.30
2023-03-21T22:27:13.602Z,10.20
2023-03-21T22:29:40.752Z,10.10
2023-03-21T22:32:07.723Z,10.00
2023-03-21T22:34:35.185Z,9.90
2023-03-21T22:37:02.687Z,9.80
2023-03-21T22:39:29.706Z,9.70
2023-03-21T22:42:04.443Z,9.70
2023-03-21T22:44:35.625Z,9.60
2023-03-21T22:47:04.557Z,9.50
2023-03-21T22:49:34.451Z,9.40
2023-03-21T22:52:03.413Z,9.40
2023-03-21T22:54:30.843Z,9.30
2023-03-21T22:56:58.042Z,9.20
2023-03-21T22:59:25.990Z,9.10
2023-03-21T23:01:53.039Z,9.10
2023-03-21T23:04:20.325Z,9.10
2023-03-21T23:06:47.486Z,9.10
2023-03-21T23:09:14.721Z,9.10
2023-03-21T23:11:43.039Z,9.10
2023-03-21T23:14:10.255Z,9.00
2023-03-21T23:16:38.544Z,9.00
2023-03-21T23:19:06.234Z,9.00
2023-03-21T23:21:35.190Z,9.00
2023-03-21T23:24:02.100Z,8.90
2023-03-21T23:26:29.288Z,8.80
2023-03-21T23:28:56.373Z,8.90
2023-03-21T23:31:26.200Z,8.90
2023-03-21T23:33:54.429Z,8.90
2023-03-21T23:36:22.412Z,8.80
2023-03-21T23:38:50.432Z,8.70
2023-03-21T23:41:20.618Z,8.70
2023-03-21T23:43:48.253Z,8.70
2023-03-21T23:46:17.068Z,8.70
2023-03-21T23:48:45.196Z,8.60
2023-03-21T23:51:13.924Z,8.60
2023-03-21T23:53:40.906Z,8.60
2023-03-21T23:56:19.843Z,8.50
2023-03-21T23:58:47.675Z,8.50
